Terminal Aerodrome Forecast
Issued by NWS Amarillo, TX

Home | Current Version | Previous Version | Text Only | Print | Product List | Glossary On
Versions: 1 2 3 4 5 6 7 8 9 10 11 12 13 14
000
FTUS44 KAMA 202300
TAFAMA
TAF
KAMA 202340Z 2100/2124 VRB03KT P6SM FEW200
     FM211000 VRB02KT 2SM BR FEW010
     FM211600 18008KT P6SM FEW070 SCT250=

USA.gov is the U.S. government's official web portal to all federal, state and local government web resources and services.